No particular awareness of the weather is required.    There are no Weather-warnings


Meteo18 Weather Cam more information Meteo18 Weather Cam


Thunder radar more information blitzortung!


Rain radar more information rain snow radar


Visit our other weather sites:

Template documentation
and downloads

And another site



Weather Underground History page Text

Daily Summary for April 14, 2017 Units:  English    Metric   Both
« Previous Day
Next Day »
Daily Weekly Monthly Yearly Custom
  High: Low: Average:
Temperature: TemperatureC °F 8.0 °F 12.7 °F
Dew Point: DewpointC °F 5.5 °F 7.1 °F
Humidity: Humidity % 48 % 70 %
Wind Speed: WindSpeedKMH mph 0.0 mph 1.9 mph
Wind Gust: WindSpeedGustKMH mph - -
Wind:- - West
Pressure: PressurehPa in 1017.2 in -
Precipitation: 0.0 in    
Historical Graphs
 
 
Tabular Data for April 14, 2017
Time Temperature Dew Point Pressure Wind Wind Speed Wind Gust Humidity Rainfall Rate (Hourly)
TemperatureC °F DewpointC °F PressurehPa in Calm     Humidity % HourlyPrecipMM in
00:02 9.3 °F 5.8 °F 1018.8 in Calm   1.6 mph 79 % 0.0 in
00:07 9.2 °F 5.7 °F 1018.8 in Calm   1.6 mph 79 % 0.0 in
00:12 9.1 °F 5.7 °F 1018.8 in Calm   1.6 mph 79 % 0.0 in
00:17 9.1 °F 5.7 °F 1018.8 in Calm   1.6 mph 79 % 0.0 in
00:22 8.9 °F 5.6 °F 1018.5 in Calm   1.6 mph 80 % 0.0 in
00:32 8.9 °F 5.6 °F 1018.5 in Calm   1.6 mph 80 % 0.0 in
00:42 8.8 °F 5.5 °F 1018.5 in Calm   1.6 mph 80 % 0.0 in
00:52 8.6 °F 5.5 °F 1018.8 in Calm   3.2 mph 81 % 0.0 in
00:57 8.6 °F 5.5 °F 1018.8 in Calm   1.6 mph 81 % 0.0 in
01:02 8.7 °F 5.6 °F 1018.5 in Calm     81 % 0.0 in
01:07 8.9 °F 5.6 °F 1018.5 in Calm   1.6 mph 80 % 0.0 in
01:12 9.2 °F 5.9 °F 1018.5 in NNW 1.6 mph 1.6 mph 80 % 0.0 in
01:17 9.3 °F 5.8 °F 1018.5 in Calm   1.6 mph 79 % 0.0 in
01:22 9.4 °F 5.9 °F 1018.5 in NNW 1.6 mph 1.6 mph 79 % 0.0 in
01:27 9.6 °F 6.1 °F 1018.5 in Calm   1.6 mph 79 % 0.0 in
01:32 9.5 °F 6.0 °F 1018.5 in Calm   1.6 mph 79 % 0.0 in
01:42 9.7 °F 6.2 °F 1018.5 in Calm   1.6 mph 79 % 0.0 in
01:47 9.6 °F 6.3 °F 1018.5 in Calm   1.6 mph 80 % 0.0 in
01:52 9.4 °F 6.3 °F 1018.5 in Calm   1.6 mph 81 % 0.0 in
01:57 9.4 °F 6.5 °F 1018.5 in Calm   1.6 mph 82 % 0.0 in
02:02 9.4 °F 6.5 °F 1018.5 in Calm   1.6 mph 82 % 0.0 in
02:07 9.4 °F 6.3 °F 1018.5 in Calm   1.6 mph 81 % 0.0 in
02:12 9.6 °F 6.7 °F 1018.2 in Calm   1.6 mph 82 % 0.0 in
02:17 9.4 °F 6.7 °F 1018.2 in Calm     83 % 0.0 in
02:22 9.3 °F 6.4 °F 1018.2 in Calm     82 % 0.0 in
02:32 9.6 °F 6.9 °F 1018.2 in Calm     83 % 0.0 in
02:37 9.6 °F 6.9 °F 1018.2 in Calm     83 % 0.0 in
02:42 9.5 °F 6.8 °F 1017.8 in NW 1.6 mph 1.6 mph 83 % 0.0 in
02:47 9.6 °F 6.5 °F 1017.8 in Calm   1.6 mph 81 % 0.0 in
02:52 9.8 °F 6.5 °F 1017.8 in Calm   1.6 mph 80 % 0.0 in
03:02 9.7 °F 6.4 °F 1017.8 in Calm   3.2 mph 80 % 0.0 in
03:07 10.0 °F 6.3 °F 1017.8 in Calm   3.2 mph 78 % 0.0 in
03:12 10.2 °F 6.3 °F 1017.8 in Calm   3.2 mph 77 % 0.0 in
03:17 10.2 °F 6.3 °F 1017.8 in North 1.6 mph 3.2 mph 77 % 0.0 in
03:22 10.0 °F 6.3 °F 1017.8 in Calm   3.2 mph 78 % 0.0 in
03:32 9.7 °F 6.2 °F 1017.8 in Calm   1.6 mph 79 % 0.0 in
03:37 9.7 °F 6.2 °F 1017.8 in Calm   1.6 mph 79 % 0.0 in
03:42 9.7 °F 6.4 °F 1017.8 in Calm   1.6 mph 80 % 0.0 in
03:52 9.3 °F 6.2 °F 1017.8 in Calm   1.6 mph 81 % 0.0 in
04:02 8.9 °F 6.2 °F 1017.8 in Calm   1.6 mph 83 % 0.0 in
04:07 8.8 °F 6.2 °F 1017.8 in Calm   1.6 mph 84 % 0.0 in
04:12 8.7 °F 6.1 °F 1017.8 in Calm   1.6 mph 84 % 0.0 in
04:17 8.7 °F 6.1 °F 1017.8 in Calm   1.6 mph 84 % 0.0 in
04:22 8.7 °F 6.1 °F 1017.8 in Calm   1.6 mph 84 % 0.0 in
04:32 8.7 °F 6.3 °F 1017.8 in Calm     85 % 0.0 in
04:42 8.7 °F 6.1 °F 1017.8 in Calm     84 % 0.0 in
04:52 8.7 °F 6.1 °F 1017.8 in Calm     84 % 0.0 in
04:57 8.6 °F 6.0 °F 1017.8 in Calm     84 % 0.0 in
05:02 8.6 °F 6.2 °F 1017.8 in Calm     85 % 0.0 in
05:12 8.4 °F 6.0 °F 1017.8 in Calm     85 % 0.0 in
05:17 8.5 °F 6.1 °F 1017.8 in Calm     85 % 0.0 in
05:22 8.6 °F 6.0 °F 1017.5 in Calm     84 % 0.0 in
05:27 8.7 °F 6.1 °F 1017.5 in Calm     84 % 0.0 in
05:32 8.6 °F 6.0 °F 1017.5 in Calm     84 % 0.0 in
05:42 8.4 °F 6.0 °F 1017.5 in Calm     85 % 0.0 in
05:47 8.4 °F 6.2 °F 1017.5 in Calm     86 % 0.0 in
05:52 8.5 °F 6.1 °F 1017.5 in Calm     85 % 0.0 in
05:57 8.5 °F 6.1 °F 1017.5 in Calm     85 % 0.0 in
06:02 8.5 °F 6.1 °F 1017.5 in Calm     85 % 0.0 in
06:12 8.6 °F 6.0 °F 1017.5 in Calm     84 % 0.0 in
06:17 8.4 °F 5.9 °F 1017.5 in Calm     84 % 0.0 in
06:22 8.3 °F 5.9 °F 1017.5 in Calm     85 % 0.0 in
06:27 8.2 °F 5.8 °F 1017.5 in Calm     85 % 0.0 in
06:32 8.2 °F 6.0 °F 1017.5 in Calm     86 % 0.0 in
06:37 8.2 °F 6.0 °F 1017.5 in Calm     86 % 0.0 in
06:42 8.1 °F 6.1 °F 1017.5 in Calm     87 % 0.0 in
06:47 8.0 °F 6.0 °F 1017.8 in Calm     87 % 0.0 in
06:52 8.1 °F 6.1 °F 1017.8 in Calm     87 % 0.0 in
06:57 8.1 °F 6.2 °F 1017.8 in Calm     88 % 0.0 in
07:02 8.2 °F 6.2 °F 1017.8 in Calm     87 % 0.0 in
07:07 8.3 °F 6.3 °F 1017.8 in Calm     87 % 0.0 in
07:12 8.3 °F 6.3 °F 1017.8 in Calm     87 % 0.0 in
07:17 8.3 °F 6.3 °F 1017.8 in Calm     87 % 0.0 in
07:22 8.4 °F 6.2 °F 1017.8 in Calm     86 % 0.0 in
07:27 8.5 °F 6.3 °F 1017.8 in Calm     86 % 0.0 in
07:32 8.6 °F 6.4 °F 1017.8 in Calm     86 % 0.0 in
07:37 8.6 °F 6.6 °F 1018.2 in Calm     87 % 0.0 in
07:42 8.6 °F 6.6 °F 1018.2 in Calm     87 % 0.0 in
07:52 8.6 °F 6.6 °F 1018.2 in Calm     87 % 0.0 in
07:57 8.6 °F 6.6 °F 1018.2 in Calm     87 % 0.0 in
08:02 8.7 °F 6.7 °F 1018.2 in Calm     87 % 0.0 in
08:07 8.8 °F 6.8 °F 1018.2 in Calm     87 % 0.0 in
08:12 8.8 °F 6.8 °F 1018.2 in Calm     87 % 0.0 in
08:17 8.9 °F 6.9 °F 1018.2 in Calm     87 % 0.0 in
08:22 9.1 °F 7.1 °F 1018.2 in Calm     87 % 0.0 in
08:27 9.2 °F 7.1 °F 1018.2 in Calm     87 % 0.0 in
08:32 9.3 °F 6.9 °F 1018.5 in Calm     85 % 0.0 in
08:37 9.5 °F 7.1 °F 1018.2 in Calm     85 % 0.0 in
08:42 9.6 °F 7.0 °F 1018.5 in Calm     84 % 0.0 in
08:52 9.7 °F 7.0 °F 1018.5 in Calm     83 % 0.0 in
08:57 9.8 °F 7.1 °F 1018.5 in Calm     83 % 0.0 in
09:02 10.0 °F 7.2 °F 1018.5 in Calm     83 % 0.0 in
09:12 10.3 °F 7.7 °F 1018.5 in Calm     84 % 0.0 in
09:17 10.4 °F 7.6 °F 1018.5 in Calm     83 % 0.0 in
09:22 10.5 °F 7.6 °F 1018.5 in Calm     82 % 0.0 in
09:32 10.9 °F 7.8 °F 1018.5 in Calm     81 % 0.0 in
09:37 11.0 °F 7.5 °F 1018.5 in Calm     79 % 0.0 in
09:42 11.1 °F 7.6 °F 1018.5 in SW 3.2 mph 4.8 mph 79 % 0.0 in
09:52 11.3 °F 7.6 °F 1018.5 in SW 1.6 mph 4.8 mph 78 % 0.0 in
09:57 11.5 °F 7.8 °F 1018.5 in Calm   3.2 mph 78 % 0.0 in
10:02 11.8 °F 7.9 °F 1018.5 in Calm   3.2 mph 77 % 0.0 in
10:07 11.9 °F 7.4 °F 1018.8 in South 3.2 mph 3.2 mph 74 % 0.0 in
10:12 11.9 °F 7.2 °F 1018.8 in SW 4.8 mph 4.8 mph 73 % 0.0 in
10:17 12.0 °F 7.1 °F 1018.8 in SW 4.8 mph 6.4 mph 72 % 0.0 in
10:22 12.0 °F 7.3 °F 1018.8 in SSW 1.6 mph 6.4 mph 73 % 0.0 in
10:27 12.0 °F 7.1 °F 1018.8 in SW 4.8 mph 6.4 mph 72 % 0.0 in
10:32 12.2 °F 7.5 °F 1018.8 in WSW 1.6 mph 8.0 mph 73 % 0.0 in
10:37 12.2 °F 7.5 °F 1018.8 in WSW 4.8 mph 8.0 mph 73 % 0.0 in
10:42 12.3 °F 7.6 °F 1018.8 in WSW 4.8 mph 8.0 mph 73 % 0.0 in
10:47 12.7 °F 8.0 °F 1018.8 in Calm   6.4 mph 73 % 0.0 in
10:52 12.9 °F 7.8 °F 1018.8 in SW 3.2 mph 6.4 mph 71 % 0.0 in
10:57 13.1 °F 7.5 °F 1018.8 in WSW 3.2 mph 6.4 mph 69 % 0.0 in
11:02 13.2 °F 7.8 °F 1018.8 in Calm   6.4 mph 70 % 0.0 in
11:07 13.4 °F 7.8 °F 1018.8 in SSE 1.6 mph 6.4 mph 69 % 0.0 in
11:12 13.5 °F 7.7 °F 1018.8 in Calm   6.4 mph 68 % 0.0 in
11:17 13.7 °F 8.1 °F 1018.8 in Calm   6.4 mph 69 % 0.0 in
11:22 14.1 °F 8.3 °F 1018.8 in ESE 3.2 mph 6.4 mph 68 % 0.0 in
11:27 14.3 °F 8.3 °F 1018.8 in SW 3.2 mph 6.4 mph 67 % 0.0 in
11:32 14.5 °F 8.0 °F 1018.8 in SSW 3.2 mph 8.0 mph 65 % 0.0 in
11:37 14.6 °F 8.5 °F 1018.8 in South 4.8 mph 9.7 mph 67 % 0.0 in
11:42 14.7 °F 8.2 °F 1018.8 in WSW 1.6 mph 9.7 mph 65 % 0.0 in
11:52 15.2 °F 8.9 °F 1018.8 in WNW 1.6 mph 6.4 mph 66 % 0.0 in
11:57 15.2 °F 8.4 °F 1018.8 in West 1.6 mph 6.4 mph 64 % 0.0 in
12:02 15.5 °F 8.7 °F 1018.8 in Calm   6.4 mph 64 % 0.0 in
12:07 15.9 °F 8.9 °F 1018.8 in SW 1.6 mph 6.4 mph 63 % 0.0 in
12:17 15.9 °F 8.6 °F 1018.8 in Calm   4.8 mph 62 % 0.0 in
12:22 16.0 °F 9.0 °F 1018.8 in NW 1.6 mph 4.8 mph 63 % 0.0 in
12:27 16.1 °F 8.6 °F 1018.8 in Calm   4.8 mph 61 % 0.0 in
12:32 16.2 °F 8.2 °F 1018.5 in West 3.2 mph 6.4 mph 59 % 0.0 in
12:42 16.3 °F 8.3 °F 1018.5 in NE 1.6 mph 4.8 mph 59 % 0.0 in
12:52 16.8 °F 9.5 °F 1018.5 in Calm   4.8 mph 62 % 0.0 in
12:57 16.8 °F 8.7 °F 1018.5 in NE 1.6 mph 4.8 mph 59 % 0.0 in
13:02 16.3 °F 8.3 °F 1018.5 in Calm   9.7 mph 59 % 0.0 in
13:07 16.5 °F 8.5 °F 1018.5 in North 1.6 mph 9.7 mph 59 % 0.0 in
13:12 16.4 °F 8.4 °F 1018.5 in NE 3.2 mph 9.7 mph 59 % 0.0 in
13:17 16.2 °F 8.4 °F 1018.5 in Calm   6.4 mph 60 % 0.0 in
13:22 16.3 °F 8.3 °F 1018.5 in Calm   6.4 mph 59 % 0.0 in
13:27 16.4 °F 8.4 °F 1018.5 in NNW 4.8 mph 6.4 mph 59 % 0.0 in
13:32 16.2 °F 8.4 °F 1018.5 in NNW 4.8 mph 9.7 mph 60 % 0.0 in
13:37 15.9 °F 7.9 °F 1018.5 in NNE 8.0 mph 11.3 mph 59 % 0.0 in
13:42 15.8 °F 8.0 °F 1018.5 in Calm   11.3 mph 60 % 0.0 in
13:47 15.9 °F 7.9 °F 1018.5 in WNW 1.6 mph 11.3 mph 59 % 0.0 in
13:52 16.1 °F 7.6 °F 1018.5 in NE 4.8 mph 9.7 mph 57 % 0.0 in
13:57 16.1 °F 7.6 °F 1018.5 in Calm   8.0 mph 57 % 0.0 in
14:02 16.3 °F 8.3 °F 1018.5 in SE 1.6 mph 8.0 mph 59 % 0.0 in
14:12 17.2 °F 8.9 °F 1018.2 in ENE 1.6 mph 8.0 mph 58 % 0.0 in
14:17 17.4 °F 8.3 °F 1018.2 in NE 4.8 mph 8.0 mph 55 % 0.0 in
14:22 17.4 °F 8.0 °F 1018.2 in Calm   8.0 mph 54 % 0.0 in
14:32 17.7 °F 7.1 °F 1018.2 in WNW 3.2 mph 12.9 mph 50 % 0.0 in
14:37 17.9 °F 7.3 °F 1018.2 in Calm   12.9 mph 50 % 0.0 in
14:42 18.3 °F 7.1 °F 1018.2 in WSW 6.4 mph 12.9 mph 48 % 0.0 in
14:57 17.7 °F 7.4 °F 1018.2 in NW 6.4 mph 11.3 mph 51 % 0.0 in
15:02 17.3 °F 7.1 °F 1018.2 in Calm   12.9 mph 51 % 0.0 in
15:07 17.3 °F 7.3 °F 1018.2 in WNW 3.2 mph 12.9 mph 52 % 0.0 in
15:12 17.3 °F 7.1 °F 1017.8 in NW 4.8 mph 12.9 mph 51 % 0.0 in
15:17 17.2 °F 7.3 °F 1017.8 in WNW 6.4 mph 14.5 mph 52 % 0.0 in
15:22 17.3 °F 7.1 °F 1017.8 in WSW 4.8 mph 14.5 mph 51 % 0.0 in
15:32 17.4 °F 8.0 °F 1017.8 in WNW 6.4 mph 9.7 mph 54 % 0.0 in
15:37 17.4 °F 7.2 °F 1017.8 in West 4.8 mph 9.7 mph 51 % 0.0 in
15:42 17.3 °F 7.1 °F 1017.8 in WNW 8.0 mph 9.7 mph 51 % 0.0 in
15:52 17.2 °F 8.1 °F 1017.8 in WNW 4.8 mph 11.3 mph 55 % 0.0 in
15:57 17.2 °F 7.3 °F 1017.8 in WNW 1.6 mph 11.3 mph 52 % 0.0 in
16:02 17.2 °F 7.5 °F 1017.5 in WNW 3.2 mph 9.7 mph 53 % 0.0 in
16:07 17.2 °F 7.0 °F 1017.5 in WSW 8.0 mph 9.7 mph 51 % 0.0 in
16:12 17.3 °F 7.3 °F 1017.5 in West 8.0 mph 12.9 mph 52 % 0.0 in
16:17 17.3 °F 7.6 °F 1017.5 in WNW 4.8 mph 12.9 mph 53 % 0.0 in
16:22 17.4 °F 7.7 °F 1017.5 in WNW 8.0 mph 12.9 mph 53 % 0.0 in
16:32 17.2 °F 7.5 °F 1017.5 in Calm   11.3 mph 53 % 0.0 in
16:37 17.3 °F 7.6 °F 1017.5 in NNE 1.6 mph 9.7 mph 53 % 0.0 in
16:42 17.4 °F 8.0 °F 1017.5 in NW 3.2 mph 11.3 mph 54 % 0.0 in
16:52 17.4 °F 7.4 °F 1017.5 in West 6.4 mph 11.3 mph 52 % 0.0 in
16:57 17.4 °F 7.7 °F 1017.5 in WNW 4.8 mph 11.3 mph 53 % 0.0 in
17:02 17.4 °F 7.7 °F 1017.5 in WNW 4.8 mph 9.7 mph 53 % 0.0 in
17:07 17.3 °F 7.3 °F 1017.5 in West 8.0 mph 11.3 mph 52 % 0.0 in
17:12 17.2 °F 7.3 °F 1017.5 in West 4.8 mph 11.3 mph 52 % 0.0 in
17:17 17.3 °F 7.6 °F 1017.5 in West 3.2 mph 11.3 mph 53 % 0.0 in
17:22 17.3 °F 7.3 °F 1017.5 in WSW 1.6 mph 11.3 mph 52 % 0.0 in
17:32 17.3 °F 7.9 °F 1017.5 in West 4.8 mph 11.3 mph 54 % 0.0 in
17:37 17.2 °F 7.5 °F 1017.5 in West 1.6 mph 11.3 mph 53 % 0.0 in
17:42 17.4 °F 8.0 °F 1017.5 in NNW 3.2 mph 9.7 mph 54 % 0.0 in
17:47 17.4 °F 8.0 °F 1017.5 in WNW 4.8 mph 6.4 mph 54 % 0.0 in
17:52 17.6 °F 7.9 °F 1017.2 in Calm   6.4 mph 53 % 0.0 in
17:57 17.9 °F 7.6 °F 1017.2 in West 6.4 mph 6.4 mph 51 % 0.0 in
18:02 18.0 °F 7.7 °F 1017.2 in WNW 3.2 mph 17.7 mph 51 % 0.0 in
18:07 18.1 °F 7.8 °F 1017.2 in West 8.0 mph 17.7 mph 51 % 0.0 in
18:12 17.9 °F 7.9 °F 1017.2 in WNW 4.8 mph 16.1 mph 52 % 0.0 in
18:17 17.6 °F 7.3 °F 1017.2 in WNW 4.8 mph 16.1 mph 51 % 0.0 in
18:22 17.4 °F 7.7 °F 1017.2 in West 4.8 mph 16.1 mph 53 % 0.0 in
18:32 17.2 °F 7.8 °F 1017.2 in WNW 4.8 mph 11.3 mph 54 % 0.0 in
18:42 17.2 °F 8.1 °F 1017.2 in NW 1.6 mph 9.7 mph 55 % 0.0 in
18:52 17.4 °F 7.7 °F 1017.2 in SW 1.6 mph 8.0 mph 53 % 0.0 in
18:57 17.3 °F 7.6 °F 1017.2 in WNW 6.4 mph 6.4 mph 53 % 0.0 in
19:02 17.2 °F 7.8 °F 1017.2 in WNW 8.0 mph 12.9 mph 54 % 0.0 in
19:07 17.1 °F 7.7 °F 1017.5 in West 4.8 mph 12.9 mph 54 % 0.0 in
19:12 17.0 °F 7.9 °F 1017.5 in West 4.8 mph 12.9 mph 55 % 0.0 in
19:17 16.9 °F 7.8 °F 1017.5 in West 6.4 mph 9.7 mph 55 % 0.0 in
19:22 16.9 °F 7.8 °F 1017.2 in West 8.0 mph 9.7 mph 55 % 0.0 in
19:27 16.8 °F 8.0 °F 1017.2 in WSW 4.8 mph 12.9 mph 56 % 0.0 in
19:32 16.7 °F 7.9 °F 1017.5 in WNW 4.8 mph 12.9 mph 56 % 0.0 in
19:42 16.6 °F 7.8 °F 1017.5 in West 4.8 mph 11.3 mph 56 % 0.0 in
19:52 16.3 °F 7.5 °F 1017.5 in West 4.8 mph 11.3 mph 56 % 0.0 in
19:57 16.3 °F 7.8 °F 1017.5 in WNW 6.4 mph 11.3 mph 57 % 0.0 in
20:02 16.2 °F 7.7 °F 1017.5 in WNW 4.8 mph 12.9 mph 57 % 0.0 in
20:12 15.9 °F 7.6 °F 1017.5 in WNW 4.8 mph 12.9 mph 58 % 0.0 in
20:17 15.8 °F 7.8 °F 1017.5 in WNW 4.8 mph 11.3 mph 59 % 0.0 in
20:22 15.7 °F 7.7 °F 1017.5 in West 1.6 mph 11.3 mph 59 % 0.0 in
20:32 15.4 °F 7.7 °F 1017.5 in WNW 3.2 mph 9.7 mph 60 % 0.0 in
20:37 15.3 °F 7.8 °F 1017.8 in West 1.6 mph 6.4 mph 61 % 0.0 in
20:42 15.1 °F 7.6 °F 1017.8 in WSW 1.6 mph 6.4 mph 61 % 0.0 in
20:47 14.8 °F 7.6 °F 1017.8 in Calm   6.4 mph 62 % 0.0 in
20:52 14.7 °F 7.7 °F 1017.8 in Calm   6.4 mph 63 % 0.0 in
21:02 14.3 °F 7.6 °F 1017.8 in West 1.6 mph 4.8 mph 64 % 0.0 in
21:07 14.2 °F 7.7 °F 1017.8 in WSW 1.6 mph 4.8 mph 65 % 0.0 in
21:12 14.1 °F 7.6 °F 1017.8 in Calm   4.8 mph 65 % 0.0 in
21:17 14.0 °F 7.5 °F 1017.8 in WSW 1.6 mph 3.2 mph 65 % 0.0 in
21:22 13.9 °F 7.4 °F 1017.8 in Calm   3.2 mph 65 % 0.0 in
21:32 13.6 °F 7.6 °F 1018.2 in NNW 3.2 mph 6.4 mph 67 % 0.0 in
21:42 13.2 °F 7.4 °F 1018.2 in NW 1.6 mph 6.4 mph 68 % 0.0 in
21:47 13.3 °F 7.3 °F 1018.2 in NW 1.6 mph 4.8 mph 67 % 0.0 in
21:52 13.1 °F 7.3 °F 1018.5 in WNW 1.6 mph 6.4 mph 68 % 0.0 in
22:02 12.8 °F 7.3 °F 1018.5 in NW 3.2 mph 4.8 mph 69 % 0.0 in
22:12 12.7 °F 7.2 °F 1018.5 in NW 4.8 mph 4.8 mph 69 % 0.0 in
22:17 12.7 °F 6.9 °F 1018.8 in NNW 1.6 mph 4.8 mph 68 % 0.0 in
22:22 12.6 °F 7.1 °F 1018.8 in NW 3.2 mph 4.8 mph 69 % 0.0 in
22:32 12.4 °F 6.9 °F 1018.8 in NW 1.6 mph 4.8 mph 69 % 0.0 in
22:37 12.4 °F 6.9 °F 1018.5 in NW 3.2 mph 4.8 mph 69 % 0.0 in
22:42 12.3 °F 6.8 °F 1018.5 in NW 1.6 mph 4.8 mph 69 % 0.0 in
22:47 12.2 °F 6.9 °F 1018.5 in NW 3.2 mph 4.8 mph 70 % 0.0 in
22:52 12.1 °F 6.8 °F 1018.5 in WNW 4.8 mph 6.4 mph 70 % 0.0 in
22:57 11.9 °F 6.6 °F 1018.8 in NNW 1.6 mph 6.4 mph 70 % 0.0 in
23:02 11.8 °F 6.7 °F 1018.8 in NNW 1.6 mph 6.4 mph 71 % 0.0 in
23:12 11.4 °F 6.5 °F 1018.8 in NW 3.2 mph 4.8 mph 72 % 0.0 in
23:17 11.3 °F 6.4 °F 1018.8 in NW 3.2 mph 3.2 mph 72 % 0.0 in
23:22 11.3 °F 6.4 °F 1018.8 in NW 4.8 mph 4.8 mph 72 % 0.0 in
23:27 11.2 °F 6.3 °F 1018.8 in NW 1.6 mph 4.8 mph 72 % 0.0 in
23:32 11.2 °F 6.1 °F 1018.8 in NW 4.8 mph 4.8 mph 71 % 0.0 in
23:37 11.2 °F 6.1 °F 1018.8 in NW 3.2 mph 6.4 mph 71 % 0.0 in
23:42 11.1 °F 6.0 °F 1018.8 in NW 1.6 mph 6.4 mph 71 % 0.0 in
23:47 11.1 °F 6.0 °F 1018.8 in Calm   6.4 mph 71 % 0.0 in
23:52 10.9 °F 6.1 °F 1018.8 in Calm   4.8 mph 72 % 0.0 in
Meteo18
Compliments of Weather Underground - 4 mb

Script developed by  Jim McMurry - jmcmurry@mwt.net Adapted for the template by  Wim van der Kuil - Leuven-Template.eu

You find our weather info also at:

European Weather Network

Weather Underground

Equipment we use:

Weather-station
Davis Vue

Weather-program
Meteobridge

Weather-server
Raspberry PI 2 B+

Provider
1 and 1

Davis Vue

Meteobridge

Raspberry PI 2 B+

1 and 1